createdAt,value
2023-04-05T00:02:18.896Z,2.40
2023-04-05T00:04:52.571Z,2.30
2023-04-05T00:07:22.919Z,2.53
2023-04-05T00:09:55.045Z,1.90
2023-04-05T00:12:23.594Z,1.73
2023-04-05T00:14:54.041Z,1.90
2023-04-05T00:17:22.538Z,2.30
2023-04-05T00:19:57.272Z,2.40
2023-04-05T00:22:26.853Z,2.63
2023-04-05T00:24:55.090Z,2.00
2023-04-05T00:27:24.031Z,2.03
2023-04-05T00:29:54.507Z,2.20
2023-04-05T00:32:25.981Z,1.90
2023-04-05T00:34:56.905Z,2.20
2023-04-05T00:37:28.142Z,2.60
2023-04-05T00:40:00.554Z,2.20
2023-04-05T00:42:30.218Z,2.20
2023-04-05T00:44:58.406Z,2.20
2023-04-05T00:47:28.988Z,2.20
2023-04-05T00:49:59.135Z,2.37
2023-04-05T00:52:31.305Z,2.47
2023-04-05T00:55:00.029Z,2.10
2023-04-05T00:57:30.154Z,2.20
2023-04-05T01:00:00.706Z,2.13
2023-04-05T01:02:33.686Z,2.70
2023-04-05T01:05:09.831Z,2.40
2023-04-05T01:07:43.956Z,2.30
2023-04-05T01:10:15.705Z,2.17
2023-04-05T01:12:46.342Z,2.67
2023-04-05T01:15:14.735Z,2.20
2023-04-05T01:17:47.049Z,2.50
2023-04-05T01:20:17.168Z,2.67
2023-04-05T01:23:26.221Z,3.13
2023-04-05T01:26:30.999Z,2.20
2023-04-05T01:29:25.475Z,2.07
2023-04-05T01:32:02.361Z,2.40
2023-04-05T01:34:41.535Z,2.67
2023-04-05T01:37:16.983Z,2.40
2023-04-05T01:39:48.454Z,2.50
2023-04-05T01:42:19.468Z,2.50
2023-04-05T01:44:49.695Z,2.40
2023-04-05T01:47:17.896Z,2.47
2023-04-05T01:49:46.458Z,2.77
2023-04-05T01:52:15.341Z,3.03
2023-04-05T01:54:45.910Z,2.80
2023-04-05T01:57:14.223Z,2.77
2023-04-05T01:59:42.616Z,2.83
2023-04-05T02:02:12.377Z,2.60
2023-04-05T02:04:42.528Z,3.73
2023-04-05T02:07:11.799Z,3.43
2023-04-05T02:09:41.800Z,2.67
2023-04-05T02:12:10.496Z,3.10
2023-04-05T02:14:45.875Z,3.13
2023-04-05T02:17:18.700Z,3.20
2023-04-05T02:19:49.950Z,2.63
2023-04-05T02:22:19.668Z,2.90
2023-04-05T02:24:47.947Z,2.80
2023-04-05T02:27:19.604Z,2.50
2023-04-05T02:29:49.311Z,2.90
2023-04-05T02:32:19.085Z,2.93
2023-04-05T02:34:48.275Z,2.80
2023-04-05T02:37:17.012Z,2.50
2023-04-05T02:39:45.691Z,3.03
2023-04-05T02:42:16.813Z,2.77
2023-04-05T02:44:45.213Z,3.00
2023-04-05T02:47:21.264Z,2.60
2023-04-05T02:49:55.897Z,3.50
2023-04-05T02:52:27.236Z,2.80
2023-04-05T02:54:55.620Z,3.00
2023-04-05T02:57:30.877Z,2.90
2023-04-05T03:00:24.055Z,3.07
2023-04-05T03:02:58.282Z,2.93
2023-04-05T03:05:28.839Z,2.70
2023-04-05T03:08:03.523Z,2.57
2023-04-05T03:10:36.343Z,2.87
2023-04-05T03:13:15.882Z,2.53
2023-04-05T03:15:45.967Z,2.60
2023-04-05T03:18:17.655Z,2.80
2023-04-05T03:20:50.060Z,2.80
2023-04-05T03:23:26.998Z,3.07
2023-04-05T03:26:01.587Z,3.50
2023-04-05T03:28:33.681Z,3.17
2023-04-05T03:31:05.348Z,2.90
2023-04-05T03:33:37.574Z,3.90
2023-04-05T03:36:09.437Z,3.40
2023-04-05T03:38:42.492Z,2.90
2023-04-05T03:41:21.552Z,3.43
2023-04-05T03:43:52.646Z,3.10
2023-04-05T03:46:24.382Z,3.20
2023-04-05T03:48:55.280Z,3.13
2023-04-05T03:51:27.477Z,2.80
2023-04-05T03:53:56.394Z,3.80
2023-04-05T03:56:28.223Z,3.57
2023-04-05T03:58:59.744Z,2.67
2023-04-05T04:01:32.739Z,3.20
2023-04-05T04:04:01.465Z,3.23
2023-04-05T04:06:34.677Z,3.30
2023-04-05T04:09:06.028Z,3.17
2023-04-05T04:11:35.078Z,3.20
2023-04-05T04:14:06.695Z,2.77
2023-04-05T04:17:06.927Z,3.40
2023-04-05T04:19:51.201Z,2.90
2023-04-05T04:22:41.087Z,3.40
2023-04-05T04:25:20.220Z,3.00
2023-04-05T04:28:18.900Z,2.90
2023-04-05T04:31:15.481Z,3.03
2023-04-05T04:34:05.288Z,3.57
2023-04-05T04:37:00.752Z,3.77
2023-04-05T04:39:54.639Z,3.07
2023-04-05T04:42:59.163Z,3.20
2023-04-05T04:45:42.592Z,3.60
2023-04-05T04:48:24.751Z,3.37
2023-04-05T04:51:03.615Z,3.77
2023-04-05T04:53:35.472Z,2.90
2023-04-05T04:56:12.176Z,3.20
2023-04-05T04:58:40.544Z,3.77
2023-04-05T05:01:11.970Z,3.10
2023-04-05T05:03:40.313Z,3.03
2023-04-05T05:06:12.325Z,3.47
2023-04-05T05:08:41.032Z,3.70
2023-04-05T05:11:10.581Z,3.80
2023-04-05T05:13:38.944Z,3.37
2023-04-05T05:16:09.597Z,3.77
2023-04-05T05:18:37.992Z,4.33
2023-04-05T05:21:05.928Z,4.33
2023-04-05T05:23:34.065Z,4.67
2023-04-05T05:26:03.605Z,3.30
2023-04-05T05:29:21.957Z,4.03
2023-04-05T05:31:52.451Z,3.70
2023-04-05T05:34:20.450Z,3.67
2023-04-05T05:36:55.948Z,3.17
2023-04-05T05:39:25.154Z,3.67
2023-04-05T05:41:53.639Z,3.10
2023-04-05T05:44:21.826Z,3.00
2023-04-05T05:46:52.356Z,3.87
2023-04-05T05:49:23.720Z,3.47
2023-04-05T05:51:52.545Z,3.47
2023-04-05T05:54:20.532Z,3.10
2023-04-05T05:56:48.424Z,3.50
2023-04-05T05:59:16.313Z,3.70
2023-04-05T06:01:46.561Z,3.43
2023-04-05T06:04:17.345Z,3.80
2023-04-05T06:06:47.970Z,3.40
2023-04-05T06:09:16.628Z,3.30
2023-04-05T06:11:55.893Z,3.73
2023-04-05T06:14:25.754Z,3.60
2023-04-05T06:16:53.875Z,3.60
2023-04-05T06:19:24.777Z,3.80
2023-04-05T06:21:52.724Z,3.90
2023-04-05T06:24:22.751Z,3.60
2023-04-05T06:26:52.188Z,4.00
2023-04-05T06:29:21.004Z,3.00
2023-04-05T06:31:49.023Z,3.87
2023-04-05T06:34:17.991Z,3.30
2023-04-05T06:36:47.542Z,3.13
2023-04-05T06:39:15.461Z,3.03
2023-04-05T06:41:46.286Z,3.47
2023-04-05T06:44:14.875Z,3.70
2023-04-05T06:46:42.753Z,3.70
2023-04-05T06:49:12.427Z,3.07
2023-04-05T06:51:40.965Z,3.17
2023-04-05T06:54:10.766Z,3.30
2023-04-05T06:56:41.127Z,3.40
2023-04-05T06:59:11.453Z,3.47
2023-04-05T07:01:40.072Z,3.87
2023-04-05T07:04:09.248Z,3.40
2023-04-05T07:06:39.279Z,3.07
2023-04-05T07:09:07.723Z,2.63
2023-04-05T07:11:39.995Z,3.20
2023-04-05T07:14:07.930Z,2.90
2023-04-05T07:16:36.503Z,2.67
2023-04-05T07:19:06.039Z,2.63
2023-04-05T07:21:34.168Z,2.70
2023-04-05T07:24:03.281Z,2.20
2023-04-05T07:26:37.282Z,2.63
2023-04-05T07:29:07.973Z,2.60
2023-04-05T07:31:36.844Z,3.03
2023-04-05T07:34:07.268Z,2.63
2023-04-05T07:36:37.163Z,2.63
2023-04-05T07:39:05.623Z,2.60
2023-04-05T07:41:35.396Z,3.33
2023-04-05T07:44:03.726Z,3.07
2023-04-05T07:46:34.006Z,2.33
2023-04-05T07:49:02.794Z,2.40
2023-04-05T07:51:31.539Z,2.80
2023-04-05T07:54:03.344Z,2.77
2023-04-05T07:56:32.369Z,2.30
2023-04-05T07:59:00.348Z,2.50
2023-04-05T08:01:28.632Z,2.63
2023-04-05T08:04:00.741Z,2.77
2023-04-05T08:06:28.738Z,2.97
2023-04-05T08:08:56.682Z,2.67
2023-04-05T08:11:26.750Z,2.80
2023-04-05T08:13:55.798Z,2.07
2023-04-05T08:16:24.768Z,2.40
2023-04-05T08:18:52.711Z,2.73
2023-04-05T08:21:22.499Z,2.73
2023-04-05T08:23:50.822Z,2.70
2023-04-05T08:26:19.954Z,2.40
2023-04-05T08:28:48.205Z,2.27
2023-04-05T08:31:17.935Z,2.27
2023-04-05T08:33:46.468Z,2.20
2023-04-05T08:36:14.644Z,2.63
2023-04-05T08:38:43.910Z,2.50
2023-04-05T08:41:18.034Z,2.30
2023-04-05T08:43:56.630Z,2.37
2023-04-05T08:46:32.041Z,2.33
2023-04-05T08:49:01.969Z,2.53
2023-04-05T08:51:30.011Z,2.87
2023-04-05T08:54:00.902Z,2.30
2023-04-05T08:56:34.346Z,2.80
2023-04-05T08:59:04.555Z,2.70
2023-04-05T09:01:34.353Z,2.63
2023-04-05T09:04:06.943Z,2.63
2023-04-05T09:06:36.732Z,2.50
2023-04-05T09:09:08.737Z,2.50
2023-04-05T09:11:37.130Z,2.40
2023-04-05T09:14:05.707Z,2.30
2023-04-05T09:16:39.459Z,2.70
2023-04-05T09:19:08.996Z,2.50
2023-04-05T09:22:01.744Z,2.40
2023-04-05T09:24:40.845Z,2.40
2023-04-05T09:27:11.247Z,2.20
2023-04-05T09:29:41.315Z,2.63
2023-04-05T09:32:12.227Z,2.07
2023-04-05T09:34:43.810Z,2.30
2023-04-05T09:37:22.178Z,2.80
2023-04-05T09:39:52.563Z,2.33
2023-04-05T09:42:24.112Z,2.20
2023-04-05T09:44:57.097Z,2.30
2023-04-05T09:47:31.446Z,2.10
2023-04-05T09:50:06.552Z,2.23
2023-04-05T09:52:35.298Z,2.40
2023-04-05T09:55:07.063Z,2.53
2023-04-05T09:57:37.564Z,2.67
2023-04-05T10:00:19.272Z,2.90
2023-04-05T10:02:49.477Z,2.73
2023-04-05T10:05:17.580Z,2.67
2023-04-05T10:07:46.654Z,2.50
2023-04-05T10:10:19.216Z,2.70
2023-04-05T10:12:49.307Z,2.87
2023-04-05T10:15:19.154Z,2.80
2023-04-05T10:17:51.532Z,2.73
2023-04-05T10:20:22.880Z,2.70
2023-04-05T10:23:02.044Z,2.50
2023-04-05T10:25:45.295Z,2.83
2023-04-05T10:28:19.071Z,2.70
2023-04-05T10:30:53.104Z,3.83
2023-04-05T10:33:23.645Z,3.23
2023-04-05T10:36:01.723Z,2.60
2023-04-05T10:38:31.032Z,2.27
2023-04-05T10:41:11.801Z,3.37
2023-04-05T10:43:42.638Z,2.73
2023-04-05T10:46:12.529Z,3.30
2023-04-05T10:48:52.798Z,2.90
2023-04-05T10:51:21.816Z,3.07
2023-04-05T10:53:52.775Z,3.17
2023-04-05T10:56:23.380Z,2.50
2023-04-05T10:58:54.989Z,2.90
2023-04-05T11:01:24.644Z,2.43
2023-04-05T11:03:55.055Z,2.50
2023-04-05T11:06:26.451Z,2.53
2023-04-05T11:08:58.001Z,2.33
2023-04-05T11:11:27.908Z,2.93
2023-04-05T11:13:57.218Z,2.70
2023-04-05T11:16:42.030Z,3.10
2023-04-05T11:19:14.206Z,3.40
2023-04-05T11:21:44.346Z,2.70
2023-04-05T11:24:16.761Z,2.97
2023-04-05T11:26:57.381Z,3.03
2023-04-05T11:29:54.326Z,4.13
2023-04-05T11:32:23.037Z,3.33
2023-04-05T11:35:01.176Z,2.13
2023-04-05T11:37:56.278Z,2.80
2023-04-05T11:40:29.549Z,2.80
2023-04-05T11:43:03.280Z,2.80
2023-04-05T11:45:33.733Z,2.87
2023-04-05T11:48:07.241Z,2.40
2023-04-05T11:50:37.196Z,2.80
2023-04-05T11:53:15.494Z,2.50
2023-04-05T11:55:47.174Z,2.80
2023-04-05T11:58:23.191Z,3.00
2023-04-05T12:01:00.241Z,2.77
2023-04-05T12:03:31.557Z,2.60
2023-04-05T12:06:01.540Z,2.73
2023-04-05T12:08:40.746Z,2.67
2023-04-05T12:11:10.812Z,2.50
2023-04-05T12:13:40.612Z,2.43
2023-04-05T12:16:10.323Z,3.10
2023-04-05T12:18:39.496Z,2.57
2023-04-05T12:21:10.407Z,2.50
2023-04-05T12:23:43.165Z,2.17
2023-04-05T12:26:11.319Z,2.67
2023-04-05T12:28:54.035Z,2.47
2023-04-05T12:31:39.162Z,2.73
2023-04-05T12:34:07.233Z,2.40
2023-04-05T12:36:35.289Z,2.60
2023-04-05T12:39:08.269Z,2.60
2023-04-05T12:41:37.221Z,2.60
2023-04-05T12:44:07.686Z,2.53
2023-04-05T12:46:42.835Z,2.97
2023-04-05T12:49:13.518Z,2.40
2023-04-05T12:51:44.875Z,2.53
2023-04-05T12:54:15.010Z,2.70
2023-04-05T12:56:43.582Z,2.90
2023-04-05T12:59:12.782Z,2.50
2023-04-05T13:01:41.512Z,2.43
2023-04-05T13:06:43.276Z,2.80
2023-04-05T13:09:12.523Z,2.10
2023-04-05T13:11:40.492Z,3.03
2023-04-05T13:14:08.466Z,2.30
2023-04-05T13:16:38.349Z,2.37
2023-04-05T13:19:06.675Z,2.10
2023-04-05T13:21:34.593Z,2.57
2023-04-05T13:24:02.734Z,2.80
2023-04-05T13:26:30.666Z,2.67
2023-04-05T13:29:01.263Z,2.23
2023-04-05T13:31:29.515Z,2.17
2023-04-05T13:34:08.735Z,2.90
2023-04-05T13:36:36.996Z,2.00
2023-04-05T13:39:05.064Z,2.67
2023-04-05T13:41:33.953Z,2.67
2023-04-05T13:44:03.400Z,1.90
2023-04-05T13:46:35.611Z,2.23
2023-04-05T13:49:05.287Z,2.80
2023-04-05T13:51:34.388Z,2.10
2023-04-05T13:54:03.669Z,2.50
2023-04-05T13:56:31.568Z,2.00
2023-04-05T13:58:59.656Z,2.17
2023-04-05T14:01:27.935Z,2.20
2023-04-05T14:03:56.125Z,2.63
2023-04-05T14:06:27.288Z,3.03
2023-04-05T14:08:56.247Z,2.10
2023-04-05T14:11:24.640Z,2.30
2023-04-05T14:13:55.667Z,3.17
2023-04-05T14:16:23.960Z,2.63
2023-04-05T14:18:53.158Z,2.23
2023-04-05T14:21:21.248Z,2.50
2023-04-05T14:23:53.218Z,2.60
2023-04-05T14:26:21.343Z,2.07
2023-04-05T14:28:49.494Z,2.83
2023-04-05T14:31:17.747Z,2.53
2023-04-05T14:33:46.321Z,2.20
2023-04-05T14:36:17.308Z,2.90
2023-04-05T14:38:48.173Z,2.93
2023-04-05T14:41:19.183Z,2.50
2023-04-05T14:43:49.482Z,2.47
2023-04-05T14:46:20.399Z,2.50
2023-04-05T14:48:48.866Z,2.37
2023-04-05T14:51:18.267Z,2.17
2023-04-05T14:53:48.809Z,2.40
2023-04-05T14:56:18.189Z,2.47
2023-04-05T14:58:46.780Z,2.20
2023-04-05T15:01:15.346Z,2.60
2023-04-05T15:03:43.806Z,2.17
2023-04-05T15:06:14.452Z,2.37
2023-04-05T15:08:44.938Z,2.17
2023-04-05T15:11:13.251Z,2.97
2023-04-05T15:13:42.606Z,2.40
2023-04-05T15:16:12.584Z,2.30
2023-04-05T15:18:40.714Z,2.10
2023-04-05T15:21:08.919Z,2.33
2023-04-05T15:23:38.173Z,2.23
2023-04-05T15:26:10.355Z,2.73
2023-04-05T15:28:38.904Z,2.17
2023-04-05T15:31:08.842Z,2.37
2023-04-05T15:33:37.735Z,2.53
2023-04-05T15:36:08.634Z,2.43
2023-04-05T15:38:39.038Z,2.33
2023-04-05T15:41:09.831Z,2.73
2023-04-05T15:43:40.202Z,2.27
2023-04-05T15:46:09.921Z,2.50
2023-04-05T15:48:38.183Z,2.77
2023-04-05T15:51:06.631Z,2.40
2023-04-05T15:53:35.467Z,2.03
2023-04-05T15:56:05.398Z,2.47
2023-04-05T15:58:33.361Z,2.30
2023-04-05T16:01:07.488Z,2.00
2023-04-05T16:03:38.956Z,1.90
2023-04-05T16:06:07.330Z,1.80
2023-04-05T16:08:35.528Z,2.07
2023-04-05T16:11:04.345Z,2.13
2023-04-05T16:13:32.658Z,2.50
2023-04-05T16:16:00.955Z,2.00
2023-04-05T16:18:31.741Z,2.00
2023-04-05T16:21:02.732Z,2.10
2023-04-05T16:23:30.826Z,2.27
2023-04-05T16:26:00.310Z,1.80
2023-04-05T16:28:29.012Z,2.03
2023-04-05T16:30:59.940Z,2.00
2023-04-05T16:33:29.956Z,1.90
2023-04-05T16:35:58.771Z,1.87
2023-04-05T16:38:29.249Z,2.10
2023-04-05T16:40:57.424Z,2.00
2023-04-05T16:43:27.956Z,1.93
2023-04-05T16:45:56.626Z,1.93
2023-04-05T16:48:30.450Z,2.27
2023-04-05T16:50:58.493Z,2.23
2023-04-05T16:53:29.504Z,2.17
2023-04-05T16:56:00.944Z,2.13
2023-04-05T16:58:29.677Z,2.50
2023-04-05T17:01:00.201Z,1.70
2023-04-05T17:03:28.506Z,2.27
2023-04-05T17:05:59.089Z,2.33
2023-04-05T17:08:28.068Z,2.60
2023-04-05T17:10:56.319Z,2.23
2023-04-05T17:13:26.828Z,2.80
2023-04-05T17:15:55.602Z,2.33
2023-04-05T17:18:25.620Z,2.07
2023-04-05T17:20:56.345Z,3.17
2023-04-05T17:23:25.954Z,3.03
2023-04-05T17:25:56.415Z,2.50
2023-04-05T17:28:26.984Z,2.03
2023-04-05T17:30:55.315Z,2.00
2023-04-05T17:33:23.706Z,2.30
2023-04-05T17:35:51.861Z,2.23
2023-04-05T17:38:20.120Z,2.37
2023-04-05T17:40:50.589Z,2.10
2023-04-05T17:43:18.835Z,2.63
2023-04-05T17:45:48.740Z,2.60
2023-04-05T17:48:20.144Z,2.33
2023-04-05T17:50:48.417Z,2.37
2023-04-05T17:53:22.451Z,2.43
2023-04-05T17:55:51.322Z,2.80
2023-04-05T17:58:21.945Z,2.37
2023-04-05T18:00:54.184Z,2.67
2023-04-05T18:03:22.457Z,2.63
2023-04-05T18:05:52.491Z,2.57
2023-04-05T18:08:23.145Z,2.27
2023-04-05T18:10:58.444Z,2.67
2023-04-05T18:13:28.412Z,2.40
2023-04-05T18:16:00.268Z,2.30
2023-04-05T18:18:30.126Z,2.50
2023-04-05T18:21:03.203Z,2.07
2023-04-05T18:23:32.466Z,2.10
2023-04-05T18:26:07.722Z,2.40
2023-04-05T18:28:36.063Z,2.30
2023-04-05T18:31:09.391Z,2.43
2023-04-05T18:33:44.142Z,2.57
2023-04-05T18:36:13.488Z,2.43
2023-04-05T18:38:42.093Z,2.37
2023-04-05T18:41:12.525Z,2.00
2023-04-05T18:43:44.046Z,2.57
2023-04-05T18:46:18.893Z,2.73
2023-04-05T18:48:54.251Z,2.10
2023-04-05T18:51:22.826Z,2.70
2023-04-05T18:53:51.263Z,3.93
2023-04-05T18:56:21.137Z,4.47
2023-04-05T18:58:51.206Z,4.13
2023-04-05T19:01:20.812Z,4.40
2023-04-05T19:03:50.373Z,4.60
2023-04-05T19:06:18.665Z,3.83
2023-04-05T19:08:48.054Z,3.50
2023-04-05T19:11:19.244Z,3.50
2023-04-05T19:13:50.670Z,3.20
2023-04-05T19:16:22.588Z,3.90
2023-04-05T19:18:55.399Z,3.07
2023-04-05T19:21:24.411Z,2.53
2023-04-05T19:23:56.134Z,2.57
2023-04-05T19:26:24.675Z,2.43
2023-04-05T19:28:55.115Z,2.57
2023-04-05T19:31:27.846Z,2.43
2023-04-05T19:33:58.814Z,2.57
2023-04-05T19:36:28.129Z,2.50
2023-04-05T19:39:01.693Z,2.67
2023-04-05T19:41:32.594Z,2.70
2023-04-05T19:44:01.191Z,3.13
2023-04-05T19:46:32.400Z,2.67
2023-04-05T19:49:08.447Z,3.13
2023-04-05T19:51:36.960Z,3.63
2023-04-05T19:54:09.418Z,3.13
2023-04-05T19:56:41.776Z,2.90
2023-04-05T19:59:30.627Z,2.93
2023-04-05T20:02:01.954Z,3.00
2023-04-05T20:04:34.385Z,2.43
2023-04-05T20:07:03.820Z,2.97
2023-04-05T20:09:32.245Z,2.33
2023-04-05T20:12:02.433Z,2.70
2023-04-05T20:14:46.418Z,2.23
2023-04-05T20:17:19.019Z,2.90
2023-04-05T20:19:57.343Z,2.60
2023-04-05T20:22:27.333Z,2.20
2023-04-05T20:24:56.455Z,2.20
2023-04-05T20:27:24.960Z,3.00
2023-04-05T20:29:54.549Z,2.20
2023-04-05T20:32:27.746Z,2.23
2023-04-05T20:34:56.211Z,3.00
2023-04-05T20:37:24.368Z,2.60
2023-04-05T20:39:54.481Z,2.40
2023-04-05T20:42:23.223Z,2.13
2023-04-05T20:44:51.331Z,2.37
2023-04-05T20:47:24.935Z,2.07
2023-04-05T20:49:52.972Z,2.70
2023-04-05T20:52:21.454Z,1.97
2023-04-05T20:54:51.212Z,2.27
2023-04-05T20:57:22.631Z,1.90
2023-04-05T20:59:51.332Z,2.10
2023-04-05T21:02:19.313Z,2.30
2023-04-05T21:04:50.517Z,1.87
2023-04-05T21:07:18.905Z,2.90
2023-04-05T21:09:47.098Z,3.10
2023-04-05T21:12:15.073Z,3.30
2023-04-05T21:14:43.184Z,2.80
2023-04-05T21:17:11.321Z,3.27
2023-04-05T21:19:39.302Z,3.20
2023-04-05T21:22:09.128Z,3.57
2023-04-05T21:24:37.766Z,4.20
2023-04-05T21:27:06.145Z,4.27
2023-04-05T21:29:34.886Z,4.37
2023-04-05T21:32:03.242Z,4.97
2023-04-05T21:34:31.790Z,4.73
2023-04-05T21:37:00.193Z,3.80
2023-04-05T21:39:31.775Z,4.60
2023-04-05T21:42:03.105Z,4.10
2023-04-05T21:44:31.854Z,3.97
2023-04-05T21:47:03.615Z,3.63
2023-04-05T21:49:31.661Z,3.50
2023-04-05T21:52:00.171Z,3.90
2023-04-05T21:54:28.642Z,3.47
2023-04-05T21:56:58.182Z,3.40
2023-04-05T21:59:26.492Z,3.60
2023-04-05T22:01:54.732Z,3.10
2023-04-05T22:04:24.717Z,2.90
2023-04-05T22:06:54.313Z,2.53
2023-04-05T22:09:24.848Z,2.00
2023-04-05T22:11:54.146Z,2.50
2023-04-05T22:14:23.540Z,2.40
2023-04-05T22:16:53.147Z,2.70
2023-04-05T22:19:22.468Z,2.80
2023-04-05T22:21:50.915Z,2.83
2023-04-05T22:24:23.291Z,2.00
2023-04-05T22:26:56.377Z,2.00
2023-04-05T22:29:28.387Z,2.27
2023-04-05T22:31:59.860Z,2.23
2023-04-05T22:34:28.135Z,2.30
2023-04-05T22:36:56.147Z,2.50
2023-04-05T22:39:24.977Z,2.70
2023-04-05T22:41:59.283Z,1.93
2023-04-05T22:44:30.380Z,2.87
2023-04-05T22:46:59.304Z,2.60
2023-04-05T22:49:27.705Z,2.43
2023-04-05T22:51:55.685Z,2.40
2023-04-05T22:54:24.083Z,2.63
2023-04-05T22:56:53.224Z,2.40
2023-04-05T22:59:23.220Z,2.20
2023-04-05T23:01:52.917Z,2.40
2023-04-05T23:04:21.089Z,1.97
2023-04-05T23:06:49.550Z,2.50
2023-04-05T23:09:17.962Z,2.63
2023-04-05T23:11:46.091Z,1.93
2023-04-05T23:14:14.165Z,2.60
2023-04-05T23:16:42.856Z,3.60
2023-04-05T23:19:12.782Z,4.40
2023-04-05T23:21:41.960Z,4.23
2023-04-05T23:24:12.286Z,3.53
2023-04-05T23:26:42.343Z,4.43
2023-04-05T23:29:10.766Z,4.20
2023-04-05T23:31:44.118Z,3.80
2023-04-05T23:34:15.336Z,3.40
2023-04-05T23:36:43.586Z,4.13
2023-04-05T23:39:12.122Z,4.03
2023-04-05T23:41:40.506Z,3.30
2023-04-05T23:44:09.076Z,3.47
2023-04-05T23:46:37.148Z,3.30
2023-04-05T23:49:06.602Z,2.90
2023-04-05T23:51:36.667Z,3.03
2023-04-05T23:54:04.815Z,3.50
2023-04-05T23:56:35.629Z,2.70
2023-04-05T23:59:06.047Z,3.10
